Time;durP1;ratioP1;P1;durP2;ratioP2;P2;SDS_P1;SDS_P2;PMS_P1;PMS_P2;Temp;Humidity;BMP_temperature;BMP_pressure;BME280_temperature;BME280_humidity;BME280_pressure;Samples;Min_cycle;Max_cycle;Signal;HPM_P1;HPM_P2
2023/10/16 00:01:45;;;;;;;4.93;0.97;;;6.60;99.90;;;;;;5073854;28;20216;-91
2023/10/16 00:04:14;;;;;;;3.70;1.37;;;6.60;99.90;;;;;;5073990;28;20632;-91
2023/10/16 00:06:39;;;;;;;6.60;1.50;;;6.60;99.90;;;;;;5509570;22;20576;-90
2023/10/16 00:09:14;;;;;;;5.93;1.17;;;6.50;99.90;;;;;;5094481;28;20183;-90
2023/10/16 00:11:41;;;;;;;4.20;0.80;;;6.50;99.90;;;;;;5094783;28;20164;-92
2023/10/16 00:14:19;;;;;;;5.67;1.00;;;6.50;99.90;;;;;;5094462;28;20675;-90
2023/10/16 00:16:44;;;;;;;4.87;1.13;;;6.50;99.90;;;;;;5094850;28;20168;-89
2023/10/16 00:19:11;;;;;;;4.10;0.97;;;6.40;99.90;;;;;;5094383;28;20271;-90
2023/10/16 00:21:43;;;;;;;5.03;1.23;;;6.40;99.90;;;;;;5094738;28;20216;-91
2023/10/16 00:24:13;;;;;;;5.27;1.03;;;6.40;99.90;;;;;;5096847;28;20270;-90
2023/10/16 00:26:51;;;;;;;3.67;1.10;;;6.40;99.90;;;;;;5098319;28;20180;-90
2023/10/16 00:29:19;;;;;;;4.50;1.20;;;6.40;99.90;;;;;;5098531;28;20237;-92
2023/10/16 00:31:46;;;;;;;4.10;1.03;;;6.30;99.90;;;;;;5098334;28;20184;-89
2023/10/16 00:34:19;;;;;;;6.30;1.20;;;6.40;99.90;;;;;;5098117;28;20176;-91
2023/10/16 00:36:54;;;;;;;2.77;1.10;;;6.30;99.90;;;;;;5097354;28;20230;-90
2023/10/16 00:39:21;;;;;;;7.83;1.20;;;6.40;99.90;;;;;;5097557;28;20178;-92
2023/10/16 00:41:49;;;;;;;3.87;1.30;;;6.40;99.90;;;;;;5097819;28;20290;-90
2023/10/16 00:44:17;;;;;;;5.27;1.17;;;6.40;99.90;;;;;;5097890;28;20181;-91
2023/10/16 00:46:46;;;;;;;4.70;0.90;;;6.40;99.90;;;;;;5097275;28;20520;-92
2023/10/16 00:49:18;;;;;;;7.53;1.50;;;6.40;99.90;;;;;;5097684;28;20195;-91
2023/10/16 00:51:45;;;;;;;4.47;1.10;;;6.40;99.90;;;;;;5097464;28;20183;-92
2023/10/16 00:54:30;;;;;;;4.13;0.90;;;6.40;99.90;;;;;;5097568;28;20179;-91
2023/10/16 00:56:57;;;;;;;4.40;1.07;;;6.30;99.90;;;;;;5097683;28;20188;-91
2023/10/16 00:59:24;;;;;;;8.40;1.50;;;6.30;99.90;;;;;;5097137;28;20176;-92
2023/10/16 01:02:13;;;;;;;6.40;1.10;;;6.30;99.90;;;;;;5097313;28;20220;-91
2023/10/16 01:04:43;;;;;;;3.93;1.37;;;6.30;99.90;;;;;;5097506;28;20173;-90
2023/10/16 01:07:14;;;;;;;4.30;0.90;;;6.30;99.90;;;;;;5096978;28;20235;-91
2023/10/16 01:09:40;;;;;;;6.73;1.37;;;6.30;99.90;;;;;;5098221;28;20179;-90
2023/10/16 01:12:07;;;;;;;5.27;1.10;;;6.20;99.90;;;;;;5097085;28;20536;-91
2023/10/16 01:14:37;;;;;;;10.53;1.40;;;6.20;99.90;;;;;;5097383;28;20237;-90
2023/10/16 01:17:08;;;;;;;5.33;1.27;;;6.20;99.90;;;;;;5097330;28;20183;-91
2023/10/16 01:19:36;;;;;;;6.07;1.17;;;6.10;99.90;;;;;;5097205;28;20176;-91
2023/10/16 01:22:02;;;;;;;5.10;1.07;;;6.20;99.90;;;;;;5096840;28;20772;-91
2023/10/16 01:24:29;;;;;;;6.17;1.40;;;6.10;99.90;;;;;;5096890;28;20515;-89
2023/10/16 01:27:06;;;;;;;5.00;1.47;;;6.20;99.90;;;;;;5096774;28;20184;-90
2023/10/16 01:29:33;;;;;;;3.40;1.13;;;6.10;99.90;;;;;;5096726;28;20172;-92
2023/10/16 01:31:59;;;;;;;3.80;1.30;;;6.10;99.90;;;;;;5096721;28;20187;-89
2023/10/16 01:34:25;;;;;;;5.83;1.50;;;6.00;99.90;;;;;;5096171;28;20173;-92
2023/10/16 01:36:51;;;;;;;6.30;1.30;;;6.10;99.90;;;;;;5095938;28;20591;-90
2023/10/16 01:42:03;;;;;;;3.20;1.50;;;6.10;99.90;;;;;;5098014;28;20226;-93
2023/10/16 01:44:29;;;;;;;6.57;1.93;;;6.10;99.90;;;;;;5096506;28;20186;-91
2023/10/16 01:46:55;;;;;;;2.70;1.50;;;6.10;99.90;;;;;;5096578;28;20183;-91
2023/10/16 01:49:26;;;;;;;5.40;1.47;;;6.00;99.90;;;;;;5097632;28;20544;-89
2023/10/16 01:51:52;;;;;;;7.63;1.50;;;6.10;99.90;;;;;;5080152;28;20202;-92
2023/10/16 01:54:22;;;;;;;8.10;1.43;;;6.10;99.90;;;;;;5096383;28;20177;-92
2023/10/16 01:56:51;;;;;;;3.53;1.27;;;6.10;99.90;;;;;;5096654;28;20179;-90
2023/10/16 01:59:21;;;;;;;5.87;1.57;;;6.20;99.90;;;;;;5096462;28;20189;-90
2023/10/16 02:01:47;;;;;;;7.67;1.53;;;6.10;99.90;;;;;;5096277;28;20212;-91
2023/10/16 02:04:13;;;;;;;8.50;1.77;;;6.20;99.90;;;;;;5096099;28;20195;-88
2023/10/16 02:06:39;;;;;;;4.77;1.47;;;6.10;99.90;;;;;;5095560;28;20682;-90
2023/10/16 02:09:13;;;;;;;5.67;1.60;;;6.20;99.90;;;;;;5096534;28;20226;-90
2023/10/16 02:11:40;;;;;;;5.27;1.67;;;6.20;99.90;;;;;;5096048;28;20193;-88
2023/10/16 02:14:07;;;;;;;5.23;1.43;;;6.20;99.90;;;;;;5096089;28;20177;-91
2023/10/16 02:16:32;;;;;;;3.27;1.10;;;6.10;99.90;;;;;;5095967;28;20222;-89
2023/10/16 02:19:00;;;;;;;7.63;1.47;;;6.10;99.90;;;;;;5096059;28;20177;-91
2023/10/16 02:21:26;;;;;;;5.33;1.60;;;6.10;99.90;;;;;;5095822;28;20200;-91
2023/10/16 02:23:51;;;;;;;4.40;1.57;;;6.20;99.90;;;;;;5095608;28;20176;-92
2023/10/16 02:26:21;;;;;;;3.53;1.77;;;6.20;99.90;;;;;;5095701;28;20574;-90
2023/10/16 02:28:54;;;;;;;5.60;1.97;;;6.20;99.90;;;;;;5095833;28;20237;-91
2023/10/16 02:31:20;;;;;;;6.03;1.80;;;6.20;99.90;;;;;;5095620;28;20168;-91
2023/10/16 02:33:50;;;;;;;5.07;1.50;;;6.20;99.90;;;;;;5095668;28;20519;-90
2023/10/16 02:36:19;;;;;;;7.17;1.70;;;6.20;99.90;;;;;;5096702;28;20259;-91
2023/10/16 02:38:55;;;;;;;6.27;1.70;;;6.20;99.90;;;;;;5095686;28;20611;-91
2023/10/16 02:41:21;;;;;;;9.00;1.53;;;6.20;99.90;;;;;;5095658;28;20694;-92
2023/10/16 02:43:48;;;;;;;5.70;1.37;;;6.20;99.90;;;;;;5095741;28;20207;-89
2023/10/16 02:46:14;;;;;;;2.57;1.37;;;6.20;99.90;;;;;;5094848;28;20271;-91
2023/10/16 02:48:41;;;;;;;4.80;1.40;;;6.20;99.90;;;;;;5095456;28;20172;-91
2023/10/16 02:51:07;;;;;;;3.83;1.20;;;6.10;99.90;;;;;;5095474;28;20204;-90
2023/10/16 02:53:51;;;;;;;4.47;1.40;;;6.10;99.90;;;;;;5095904;28;20559;-89
2023/10/16 02:56:17;;;;;;;3.87;1.40;;;6.10;99.90;;;;;;5095713;28;20660;-89
2023/10/16 02:58:55;;;;;;;4.47;1.50;;;6.10;99.90;;;;;;5095214;28;20172;-90
2023/10/16 03:01:21;;;;;;;6.10;1.10;;;6.10;99.90;;;;;;5095221;28;20287;-91
2023/10/16 03:03:48;;;;;;;4.53;1.60;;;6.00;99.90;;;;;;5095073;28;20184;-92
2023/10/16 03:06:15;;;;;;;4.10;1.33;;;6.00;99.90;;;;;;5095251;28;20232;-90
2023/10/16 03:09:04;;;;;;;3.13;1.33;;;6.10;99.90;;;;;;5095061;28;20200;-92
2023/10/16 03:11:30;;;;;;;4.13;1.47;;;6.10;99.90;;;;;;5095120;28;20173;-89
2023/10/16 03:13:59;;;;;;;2.80;1.30;;;6.10;99.90;;;;;;5095074;28;20184;-91
2023/10/16 03:16:26;;;;;;;5.63;1.70;;;6.10;99.90;;;;;;5094848;28;20358;-90
2023/10/16 03:19:04;;;;;;;5.83;1.27;;;6.10;99.90;;;;;;5095536;28;20176;-93
2023/10/16 03:21:31;;;;;;;2.53;1.10;;;6.10;99.90;;;;;;5095035;28;20211;-89
2023/10/16 03:23:58;;;;;;;6.13;1.07;;;6.10;99.90;;;;;;5094910;28;20230;-91
2023/10/16 03:26:30;;;;;;;4.87;1.30;;;6.10;99.90;;;;;;5094898;28;20184;-90
2023/10/16 03:29:02;;;;;;;5.67;1.40;;;6.00;99.90;;;;;;5095087;28;20633;-91
2023/10/16 03:31:29;;;;;;;4.90;1.40;;;6.00;99.90;;;;;;5094874;28;20172;-90
2023/10/16 03:33:56;;;;;;;3.40;1.03;;;5.90;99.90;;;;;;5094812;28;20180;-90
2023/10/16 03:36:22;;;;;;;6.33;1.30;;;5.90;99.90;;;;;;5094812;28;20177;-90
2023/10/16 03:38:51;;;;;;;6.00;1.30;;;5.90;99.90;;;;;;5094687;28;20176;-91
2023/10/16 03:43:47;;;;;;;3.10;1.30;;;5.90;99.90;;;;;;5095784;28;20195;-91
2023/10/16 03:46:13;;;;;;;3.80;1.30;;;5.90;99.90;;;;;;5094672;28;20172;-90
2023/10/16 03:48:40;;;;;;;4.83;1.53;;;5.90;99.90;;;;;;5094593;28;20290;-89
2023/10/16 03:51:10;;;;;;;4.17;1.27;;;6.00;99.90;;;;;;5094650;28;20176;-90
2023/10/16 03:53:37;;;;;;;4.13;1.00;;;5.90;99.90;;;;;;5094851;28;20239;-90
2023/10/16 03:56:04;;;;;;;5.03;1.30;;;6.00;99.90;;;;;;5094701;28;20505;-89
2023/10/16 03:58:35;;;;;;;4.37;1.20;;;6.00;99.90;;;;;;5097713;28;20183;-89
2023/10/16 04:01:10;;;;;;;5.87;1.17;;;6.10;99.90;;;;;;5098706;28;20200;-89
2023/10/16 04:03:46;;;;;;;3.87;1.20;;;6.10;99.90;;;;;;5098634;28;20178;-89
2023/10/16 04:06:22;;;;;;;6.93;1.23;;;6.10;99.90;;;;;;5098341;28;20280;-90
2023/10/16 04:09:04;;;;;;;5.63;1.23;;;6.20;99.90;;;;;;5099041;28;20176;-90
2023/10/16 04:11:32;;;;;;;4.53;1.37;;;6.20;99.90;;;;;;5098474;28;20602;-90
2023/10/16 04:13:59;;;;;;;8.43;1.30;;;6.20;99.90;;;;;;5098396;28;20181;-91
2023/10/16 04:19:34;;;;;;;5.83;1.93;;;6.20;99.90;;;;;;5099646;28;20165;-90
2023/10/16 04:21:50;;;;;;;6.73;1.43;;;6.20;99.90;;;;;;5099185;28;20306;-89
2023/10/16 04:26:56;;;;;;;7.73;1.20;;;6.20;99.90;;;;;;5099518;28;20613;-93
2023/10/16 04:29:34;;;;;;;4.60;1.07;;;6.20;99.90;;;;;;5098280;28;20595;-90
2023/10/16 04:32:20;;;;;;;5.37;1.40;;;6.30;99.90;;;;;;5098107;28;20188;-91
2023/10/16 04:34:57;;;;;;;3.47;1.00;;;6.40;99.90;;;;;;5097923;28;20599;-90
2023/10/16 04:37:36;;;;;;;7.00;1.50;;;6.30;99.90;;;;;;5097909;28;20187;-91
2023/10/16 04:48:07;;;;;;;2.00;1.00;;;6.40;99.90;;;;;;5099249;28;20173;-91
2023/10/16 04:53:13;;;;;;;5.07;1.50;;;6.40;99.90;;;;;;5099599;28;20183;-93
2023/10/16 05:11:32;;;;;;;7.97;1.23;;;6.50;99.90;;;;;;5098935;28;20168;-92
2023/10/16 05:14:19;;;;;;;5.90;1.57;;;6.50;99.90;;;;;;5097800;28;20179;-90
2023/10/16 06:14:57;;;;;;;7.10;1.37;;;6.50;99.90;;;;;;5101333;28;20743;-94
2023/10/16 06:17:37;;;;;;;6.33;1.60;;;6.50;99.90;;;;;;5100151;28;20180;-93
2023/10/16 06:20:37;;;;;;;6.70;1.97;;;6.60;99.90;;;;;;5099624;28;20614;-90
2023/10/16 06:23:04;;;;;;;4.87;1.67;;;6.60;99.90;;;;;;5099227;28;20196;-91
2023/10/16 06:25:35;;;;;;;3.73;1.40;;;6.60;99.90;;;;;;5099056;28;20177;-90
2023/10/16 06:28:02;;;;;;;5.17;1.40;;;6.70;99.90;;;;;;5099208;28;20183;-90
2023/10/16 06:30:37;;;;;;;10.17;1.50;;;6.70;99.90;;;;;;5069931;22;20278;-90
2023/10/16 06:33:06;;;;;;;6.90;1.30;;;6.70;99.90;;;;;;5018558;28;20183;-93
2023/10/16 06:35:33;;;;;;;7.33;1.57;;;6.80;99.90;;;;;;5017674;28;20187;-93
2023/10/16 06:38:00;;;;;;;6.50;1.40;;;6.90;99.90;;;;;;4999705;28;20193;-91
2023/10/16 06:40:34;;;;;;;5.63;1.60;;;6.90;99.90;;;;;;5016925;28;20186;-90
2023/10/16 06:43:10;;;;;;;5.03;1.30;;;6.90;99.90;;;;;;5015941;28;20214;-91
2023/10/16 06:45:41;;;;;;;6.90;2.03;;;6.90;99.90;;;;;;5016214;28;20186;-92
2023/10/16 06:48:17;;;;;;;5.90;1.40;;;7.00;99.90;;;;;;5016048;28;20187;-93
2023/10/16 06:51:07;;;;;;;5.83;1.50;;;7.00;99.90;;;;;;5016403;28;20636;-91
2023/10/16 06:53:33;;;;;;;5.77;1.30;;;7.10;99.90;;;;;;5015500;28;20179;-92
2023/10/16 06:55:59;;;;;;;5.30;1.23;;;7.10;99.90;;;;;;5015334;28;20606;-90
2023/10/16 06:58:26;;;;;;;5.53;1.47;;;7.10;99.90;;;;;;5015596;28;20194;-92
2023/10/16 07:00:53;;;;;;;6.43;1.57;;;7.10;99.90;;;;;;5016899;28;20175;-91
2023/10/16 07:03:20;;;;;;;4.30;1.43;;;7.10;99.90;;;;;;5015602;28;20213;-90
2023/10/16 07:05:48;;;;;;;5.53;1.50;;;7.10;99.90;;;;;;5015856;28;20186;-91
2023/10/16 07:08:19;;;;;;;2.43;1.30;;;7.10;99.90;;;;;;5016577;28;20598;-91
2023/10/16 07:10:49;;;;;;;6.00;1.50;;;7.10;99.90;;;;;;5015446;28;20176;-90
2023/10/16 07:13:29;;;;;;;5.67;1.80;;;7.20;99.90;;;;;;5016531;28;20175;-90
2023/10/16 07:15:59;;;;;;;4.83;1.50;;;7.10;99.90;;;;;;5015238;28;20632;-94
2023/10/16 07:18:26;;;;;;;4.13;1.60;;;7.20;99.90;;;;;;5015287;28;20194;-92
2023/10/16 07:20:59;;;;;;;7.87;2.23;;;7.30;99.90;;;;;;5014875;28;20179;-90
2023/10/16 07:23:29;;;;;;;6.97;1.57;;;7.30;99.90;;;;;;5014818;28;20211;-90
2023/10/16 07:25:59;;;;;;;5.30;1.67;;;7.40;99.90;;;;;;5015250;28;20637;-90
2023/10/16 07:28:27;;;;;;;5.03;1.90;;;7.40;99.90;;;;;;5015879;28;20176;-89
2023/10/16 07:30:56;;;;;;;5.23;1.80;;;7.40;99.90;;;;;;5015579;28;20670;-87
2023/10/16 07:33:23;;;;;;;6.23;2.20;;;7.40;99.90;;;;;;5015314;28;20179;-89
2023/10/16 07:35:51;;;;;;;6.53;1.87;;;7.40;99.90;;;;;;5015894;28;20189;-88
2023/10/16 07:38:25;;;;;;;5.20;2.10;;;7.40;99.90;;;;;;5014913;28;20618;-86
2023/10/16 07:40:58;;;;;;;5.17;1.97;;;7.50;99.90;;;;;;5015469;28;20241;-88
2023/10/16 07:43:27;;;;;;;6.87;1.90;;;7.50;99.90;;;;;;5016668;28;20626;-87
2023/10/16 07:46:18;;;;;;;3.90;1.93;;;7.50;99.90;;;;;;5014731;28;20182;-87
2023/10/16 07:48:51;;;;;;;4.73;2.07;;;7.60;99.90;;;;;;5016024;28;20183;-89
2023/10/16 07:51:21;;;;;;;8.73;2.17;;;7.60;99.90;;;;;;5016065;28;20560;-88
2023/10/16 07:53:50;;;;;;;3.50;2.17;;;7.60;99.90;;;;;;5014713;28;20194;-86
2023/10/16 07:59:07;;;;;;;3.70;1.93;;;7.70;99.90;;;;;;5015999;28;20163;-85
2023/10/16 08:01:54;;;;;;;5.30;1.97;;;7.70;99.90;;;;;;5015040;28;20214;-86
2023/10/16 08:06:55;;;;;;;3.97;2.03;;;7.80;99.90;;;;;;5015957;28;20182;-85
2023/10/16 08:11:58;;;;;;;4.60;2.20;;;7.90;99.90;;;;;;5015743;28;20186;-86
2023/10/16 08:14:28;;;;;;;8.13;2.30;;;8.00;99.90;;;;;;5014584;28;20202;-86
2023/10/16 08:17:14;;;;;;;3.00;1.93;;;8.00;99.90;;;;;;5014648;28;20179;-86
2023/10/16 08:19:44;;;;;;;13.30;3.03;;;8.00;99.90;;;;;;5014370;28;20174;-85
2023/10/16 08:22:13;;;;;;;5.63;2.40;;;8.20;99.90;;;;;;5014851;28;20582;-85
2023/10/16 08:24:58;;;;;;;11.20;2.93;;;8.20;99.90;;;;;;5034077;28;20179;-86
2023/10/16 08:27:44;;;;;;;6.20;2.10;;;8.30;99.90;;;;;;5035593;28;20233;-86
2023/10/16 08:33:09;;;;;;;6.03;2.53;;;8.50;99.90;;;;;;5013309;28;20700;-86
2023/10/16 08:35:38;;;;;;;6.17;3.00;;;8.50;99.90;;;;;;5013261;28;20175;-85
2023/10/16 08:38:15;;;;;;;6.77;3.13;;;8.50;99.90;;;;;;5031113;28;20282;-87
2023/10/16 08:40:46;;;;;;;7.32;3.47;;;8.50;99.90;;;;;;5033725;28;20162;-87
2023/10/16 08:43:18;;;;;;;7.93;3.38;;;8.60;99.90;;;;;;5035218;28;20308;-86
2023/10/16 08:45:55;;;;;;;9.40;3.38;;;8.60;99.90;;;;;;5036723;28;20218;-87
2023/10/16 08:48:22;;;;;;;7.85;3.40;;;8.60;99.90;;;;;;5037761;28;20181;-86
2023/10/16 08:50:57;;;;;;;9.20;3.38;;;8.60;99.90;;;;;;5036978;28;20278;-86
2023/10/16 08:53:32;;;;;;;4.70;2.90;;;8.60;99.90;;;;;;5037116;28;20175;-86
2023/10/16 08:56:08;;;;;;;4.88;2.97;;;8.60;99.90;;;;;;5037502;28;20185;-85
2023/10/16 08:58:41;;;;;;;5.97;3.28;;;8.60;99.90;;;;;;5037474;28;20181;-86
2023/10/16 09:01:13;;;;;;;4.23;3.43;;;8.60;99.90;;;;;;5036903;28;20194;-87
2023/10/16 09:03:56;;;;;;;5.65;3.30;;;8.70;99.90;;;;;;5038844;28;20194;-87
2023/10/16 09:06:23;;;;;;;6.93;3.80;;;8.80;99.90;;;;;;5037971;28;20171;-89
2023/10/16 09:08:54;;;;;;;4.18;2.80;;;8.80;99.90;;;;;;5037072;28;20189;-85
2023/10/16 09:11:22;;;;;;;6.57;2.80;;;8.90;99.90;;;;;;5037400;28;20660;-84
2023/10/16 09:13:51;;;;;;;6.50;3.70;;;8.90;99.90;;;;;;5037243;28;20209;-84
2023/10/16 09:16:23;;;;;;;6.13;3.58;;;9.00;99.90;;;;;;5037986;28;20204;-84
2023/10/16 09:18:51;;;;;;;6.00;3.20;;;9.00;99.90;;;;;;5037157;28;20650;-91
2023/10/16 09:21:28;;;;;;;3.90;3.37;;;9.10;99.90;;;;;;5036558;28;20704;-84
2023/10/16 09:23:59;;;;;;;6.03;2.92;;;9.20;99.90;;;;;;5036909;28;20196;-88
2023/10/16 09:26:28;;;;;;;8.80;3.73;;;9.10;99.90;;;;;;5039092;28;20174;-83
2023/10/16 09:28:55;;;;;;;5.80;3.35;;;9.10;99.90;;;;;;5040050;28;20179;-85
2023/10/16 09:31:24;;;;;;;7.07;3.42;;;9.20;99.90;;;;;;5039079;28;20230;-84
2023/10/16 09:33:51;;;;;;;5.85;3.85;;;9.20;99.90;;;;;;5040772;28;20305;-83
2023/10/16 09:36:18;;;;;;;7.35;3.83;;;9.30;99.90;;;;;;5055920;28;20174;-84
2023/10/16 09:38:51;;;;;;;4.95;4.10;;;9.30;99.90;;;;;;5038845;28;20190;-88
2023/10/16 09:43:56;;;;;;;4.28;3.50;;;9.50;99.90;;;;;;5019732;28;20163;-84
2023/10/16 09:49:09;;;;;;;5.03;2.80;;;9.70;99.90;;;;;;5034207;28;20266;-84
2023/10/16 09:51:39;;;;;;;4.75;3.05;;;9.70;99.90;;;;;;5018435;28;20175;-84
2023/10/16 09:54:09;;;;;;;6.55;2.80;;;9.60;99.90;;;;;;5033953;28;20655;-84
2023/10/16 09:56:38;;;;;;;4.22;2.72;;;9.60;99.90;;;;;;5038989;28;20166;-83
2023/10/16 09:59:23;;;;;;;5.38;2.88;;;9.70;99.90;;;;;;5038811;28;20202;-84
2023/10/16 10:01:55;;;;;;;6.57;2.83;;;9.70;99.90;;;;;;5038488;28;20265;-83
2023/10/16 10:04:24;;;;;;;4.93;2.63;;;9.70;99.90;;;;;;5036978;28;20254;-84
2023/10/16 10:06:57;;;;;;;4.10;2.15;;;9.80;99.90;;;;;;5036772;28;20234;-84
2023/10/16 10:09:44;;;;;;;5.57;2.45;;;9.80;99.90;;;;;;5036055;28;20257;-83
2023/10/16 10:12:42;;;;;;;3.80;2.17;;;9.70;99.90;;;;;;5052389;28;20258;-82
2023/10/16 10:15:35;;;;;;;3.58;2.38;;;9.60;99.90;;;;;;5035243;28;20182;-83
2023/10/16 10:18:31;;;;;;;4.13;1.73;;;9.50;99.90;;;;;;5448437;22;20245;-83
2023/10/16 10:20:55;;;;;;;5.30;1.90;;;9.50;99.90;;;;;;5055361;28;20182;-87
2023/10/16 10:23:24;;;;;;;2.13;1.33;;;9.60;99.90;;;;;;5056551;28;20213;-82
2023/10/16 10:25:54;;;;;;;4.55;1.70;;;9.60;99.90;;;;;;5055413;28;20670;-84
2023/10/16 10:28:38;;;;;;;4.53;1.50;;;9.60;99.90;;;;;;5064981;28;20170;-93
2023/10/16 10:31:05;;;;;;;3.92;1.60;;;9.70;99.90;;;;;;5066895;28;20269;-86
2023/10/16 10:33:38;;;;;;;8.05;1.90;;;9.60;99.90;;;;;;5060904;28;20188;-93
2023/10/16 10:36:39;;;;;;;4.75;1.35;;;9.70;99.90;;;;;;5062329;28;20188;-95
2023/10/16 10:39:36;;;;;;;3.10;1.52;;;9.70;99.90;;;;;;5064826;28;20494;-94
2023/10/16 10:42:04;;;;;;;3.20;1.92;;;9.70;99.90;;;;;;5072147;28;20201;-82
2023/10/16 10:44:44;;;;;;;1.73;1.35;;;9.70;99.90;;;;;;5064176;28;20142;-96
2023/10/16 10:47:36;;;;;;;3.40;1.40;;;9.60;99.90;;;;;;5072912;28;20169;-84
2023/10/16 10:50:13;;;;;;;1.53;1.07;;;9.60;99.90;;;;;;5074009;28;20167;-83
2023/10/16 10:52:40;;;;;;;2.92;1.42;;;9.70;99.90;;;;;;5073165;28;20174;-85
2023/10/16 10:55:21;;;;;;;2.30;1.00;;;9.70;99.90;;;;;;5074352;28;20185;-82
2023/10/16 10:57:58;;;;;;;1.45;1.00;;;9.70;99.90;;;;;;5058679;28;20166;-83
2023/10/16 11:05:25;;;;;;;5.80;1.90;;;9.50;99.90;;;;;;5071734;28;20170;-90
2023/10/16 11:10:52;;;;;;;7.85;3.67;;;9.50;99.90;;;;;;5074070;28;20158;-84
2023/10/16 11:13:21;;;;;;;8.18;2.65;;;9.50;99.90;;;;;;5072097;28;20185;-83
2023/10/16 11:15:54;;;;;;;15.88;8.18;;;9.50;99.90;;;;;;5076171;28;20189;-86
2023/10/16 11:18:22;;;;;;;4.88;1.95;;;9.50;99.90;;;;;;5078442;28;20288;-82
2023/10/16 11:21:06;;;;;;;1.92;1.20;;;9.60;99.90;;;;;;5096443;28;20161;-83
2023/10/16 11:23:38;;;;;;;3.88;1.27;;;9.60;99.90;;;;;;5079129;28;20191;-83
2023/10/16 11:26:05;;;;;;;5.25;1.30;;;9.70;99.90;;;;;;5081074;28;20224;-83
2023/10/16 11:28:32;;;;;;;5.63;1.70;;;9.70;99.90;;;;;;5098180;28;20158;-84
2023/10/16 11:31:11;;;;;;;3.03;1.48;;;9.90;99.90;;;;;;5097143;28;20177;-84
2023/10/16 11:36:09;;;;;;;3.97;1.27;;;10.20;99.90;;;;;;5097874;28;20142;-84
2023/10/16 11:38:36;;;;;;;3.35;0.98;;;10.10;99.90;;;;;;5097536;28;20169;-82
2023/10/16 11:41:24;;;;;;;0.98;0.60;;;10.10;99.90;;;;;;5097068;28;20169;-83
2023/10/16 11:43:54;;;;;;;7.63;1.40;;;10.00;99.90;;;;;;5095868;28;20173;-83
2023/10/16 11:46:31;;;;;;;1.65;0.70;;;10.10;99.90;;;;;;5095252;28;20188;-84
2023/10/16 11:51:59;;;;;;;3.85;1.08;;;10.50;99.90;;;;;;5097845;28;20177;-83
2023/10/16 11:54:25;;;;;;;2.25;0.70;;;10.50;99.90;;;;;;5096076;28;20165;-84
2023/10/16 11:56:53;;;;;;;0.82;0.40;;;10.50;99.90;;;;;;5096919;28;20173;-87
2023/10/16 11:59:52;;;;;;;2.42;0.77;;;10.50;99.90;;;;;;5097972;28;20203;-86
2023/10/16 12:02:19;;;;;;;1.60;0.55;;;10.70;99.90;;;;;;5098033;28;20200;-85
2023/10/16 12:04:46;;;;;;;2.15;0.73;;;10.70;99.90;;;;;;5097611;28;20185;-85
2023/10/16 12:07:13;;;;;;;2.03;0.93;;;10.70;99.90;;;;;;5098222;28;20177;-85
2023/10/16 12:10:04;;;;;;;2.47;0.63;;;10.70;99.90;;;;;;5095946;28;20535;-85
2023/10/16 12:12:30;;;;;;;2.17;0.60;;;10.80;99.90;;;;;;5080558;28;20272;-86
2023/10/16 12:14:58;;;;;;;2.90;0.80;;;10.90;99.90;;;;;;5078333;28;20193;-86
2023/10/16 12:17:27;;;;;;;3.10;0.57;;;10.80;99.90;;;;;;5078254;28;20181;-86
2023/10/16 12:19:57;;;;;;;0.93;0.57;;;11.00;99.90;;;;;;5080770;28;20595;-87
2023/10/16 12:22:23;;;;;;;2.05;0.70;;;11.00;99.90;;;;;;5081235;28;20213;-86
2023/10/16 12:24:49;;;;;;;1.67;0.60;;;11.00;99.90;;;;;;5062446;28;20223;-87
2023/10/16 12:27:15;;;;;;;1.55;0.60;;;10.90;99.90;;;;;;5061516;28;20181;-88
2023/10/16 12:29:44;;;;;;;1.42;0.88;;;10.80;99.90;;;;;;5061173;28;20224;-86
2023/10/16 12:32:10;;;;;;;1.17;0.52;;;10.60;99.90;;;;;;5061086;28;20178;-88
2023/10/16 12:34:36;;;;;;;3.25;0.75;;;10.50;99.90;;;;;;5061859;28;20209;-87
2023/10/16 12:37:07;;;;;;;2.85;0.70;;;10.40;99.90;;;;;;5060951;28;20178;-87
2023/10/16 12:39:35;;;;;;;2.65;0.63;;;10.40;99.90;;;;;;5060847;28;20188;-87
2023/10/16 12:42:06;;;;;;;1.88;0.68;;;10.30;99.90;;;;;;5060202;28;20245;-86
2023/10/16 12:44:33;;;;;;;1.95;0.80;;;10.20;99.90;;;;;;5058900;28;20185;-85
2023/10/16 12:46:59;;;;;;;2.15;0.88;;;10.20;99.90;;;;;;5042951;28;20193;-87
2023/10/16 12:49:25;;;;;;;3.92;2.10;;;10.10;99.90;;;;;;5060736;28;20227;-87
2023/10/16 12:51:56;;;;;;;3.40;0.50;;;10.10;99.90;;;;;;5060036;28;20604;-87
2023/10/16 12:54:24;;;;;;;1.63;0.70;;;10.20;99.90;;;;;;5058022;28;20186;-86
2023/10/16 12:56:52;;;;;;;4.15;0.98;;;10.50;99.90;;;;;;5060289;28;20250;-87
2023/10/16 12:59:22;;;;;;;4.13;0.75;;;10.60;99.90;;;;;;5060935;28;20257;-86
2023/10/16 13:01:52;;;;;;;1.35;0.60;;;10.60;99.90;;;;;;5064835;28;20201;-85
2023/10/16 13:04:19;;;;;;;6.93;2.35;;;10.60;99.90;;;;;;5083680;28;20177;-85
2023/10/16 13:06:45;;;;;;;4.18;0.90;;;10.60;99.90;;;;;;5081766;28;20260;-85
2023/10/16 13:09:18;;;;;;;3.40;0.90;;;10.50;99.90;;;;;;5081770;28;20200;-85
2023/10/16 13:11:46;;;;;;;2.92;0.90;;;10.50;99.90;;;;;;5081714;28;20215;-86
2023/10/16 13:14:15;;;;;;;1.40;0.60;;;10.50;99.90;;;;;;5080385;28;20631;-87
2023/10/16 13:16:41;;;;;;;1.92;1.20;;;10.50;99.90;;;;;;5081375;28;20173;-87
2023/10/16 13:19:18;;;;;;;3.05;1.00;;;10.50;99.90;;;;;;5082121;28;20226;-87
2023/10/16 13:21:51;;;;;;;1.10;0.70;;;10.50;99.90;;;;;;5078881;28;20563;-87
2023/10/16 13:24:20;;;;;;;2.95;0.88;;;10.50;99.90;;;;;;5076668;28;20254;-86
2023/10/16 13:26:47;;;;;;;2.83;1.08;;;10.50;99.90;;;;;;5075736;28;20177;-87
2023/10/16 13:29:16;;;;;;;3.13;0.80;;;10.60;99.90;;;;;;5076563;28;20185;-87
2023/10/16 13:31:46;;;;;;;2.05;0.77;;;10.50;99.90;;;;;;5076449;28;20180;-88
2023/10/16 13:34:17;;;;;;;3.90;1.02;;;10.50;99.90;;;;;;5077944;28;20177;-87
2023/10/16 13:37:01;;;;;;;3.78;1.00;;;10.50;99.90;;;;;;5076817;28;20173;-88
2023/10/16 13:39:31;;;;;;;1.77;0.90;;;10.50;99.90;;;;;;5076183;28;20315;-86
2023/10/16 13:41:59;;;;;;;1.73;0.85;;;10.40;99.90;;;;;;5076772;28;20197;-87
2023/10/16 13:44:25;;;;;;;4.88;1.17;;;10.40;99.90;;;;;;5074883;28;20189;-87
2023/10/16 13:46:59;;;;;;;3.00;1.10;;;10.40;99.90;;;;;;5058855;28;20620;-87
2023/10/16 13:49:25;;;;;;;5.72;3.25;;;10.20;99.90;;;;;;5075200;28;20188;-87
2023/10/16 13:51:53;;;;;;;6.78;3.10;;;10.30;99.90;;;;;;5074458;28;20177;-88
2023/10/16 13:54:19;;;;;;;4.93;2.22;;;10.20;99.90;;;;;;5075907;28;20285;-86
2023/10/16 13:56:48;;;;;;;4.50;1.90;;;10.10;99.90;;;;;;5075269;28;20193;-84
2023/10/16 13:59:15;;;;;;;2.42;1.27;;;10.00;99.90;;;;;;5055024;28;20186;-87
2023/10/16 14:01:46;;;;;;;3.63;1.50;;;9.90;99.90;;;;;;5071463;28;20233;-87
2023/10/16 14:04:17;;;;;;;4.30;1.50;;;9.90;99.90;;;;;;5074751;28;20192;-86
2023/10/16 14:06:53;;;;;;;5.15;2.15;;;9.80;99.90;;;;;;5051956;28;20189;-86
2023/10/16 14:09:29;;;;;;;4.35;1.23;;;9.80;99.90;;;;;;5075817;28;20192;-86
2023/10/16 14:11:59;;;;;;;3.50;1.80;;;9.80;99.90;;;;;;5076034;28;20184;-86
2023/10/16 14:14:32;;;;;;;4.63;1.75;;;9.70;99.90;;;;;;5075925;28;20180;-87
2023/10/16 14:17:16;;;;;;;4.05;1.50;;;9.70;99.90;;;;;;5076133;28;20170;-87
2023/10/16 14:19:47;;;;;;;4.03;2.80;;;9.60;99.90;;;;;;5074730;28;20282;-86
2023/10/16 14:22:23;;;;;;;8.32;4.35;;;9.70;99.90;;;;;;5078211;28;20201;-86
2023/10/16 14:24:50;;;;;;;6.38;3.80;;;9.80;99.90;;;;;;5075784;28;20181;-86
2023/10/16 14:27:24;;;;;;;7.30;3.63;;;9.90;99.90;;;;;;5077038;28;20176;-86
2023/10/16 14:29:57;;;;;;;3.33;1.20;;;9.90;99.90;;;;;;5076457;28;20228;-87
2023/10/16 14:32:24;;;;;;;2.83;0.98;;;10.00;99.90;;;;;;5059609;28;20608;-86
2023/10/16 14:34:49;;;;;;;2.30;1.02;;;10.00;99.90;;;;;;5057200;28;20174;-86
2023/10/16 14:37:17;;;;;;;5.07;1.58;;;10.00;99.90;;;;;;5056223;28;20174;-86
2023/10/16 14:39:46;;;;;;;3.60;1.50;;;9.90;99.90;;;;;;5055674;28;20247;-86
2023/10/16 14:42:11;;;;;;;2.75;1.20;;;9.80;99.90;;;;;;5055352;28;20213;-87
2023/10/16 14:44:40;;;;;;;2.70;1.17;;;9.80;99.90;;;;;;5056296;28;20193;-87
2023/10/16 14:47:09;;;;;;;2.55;1.20;;;9.80;99.90;;;;;;5056759;28;20564;-86
2023/10/16 14:49:37;;;;;;;3.85;1.30;;;9.80;99.90;;;;;;5056148;28;20181;-86
2023/10/16 14:52:05;;;;;;;2.95;1.05;;;9.80;99.90;;;;;;5057009;28;20177;-86
2023/10/16 14:54:32;;;;;;;2.03;1.20;;;9.70;99.90;;;;;;5056211;28;20174;-86
2023/10/16 14:56:59;;;;;;;2.63;1.20;;;9.60;99.90;;;;;;5056391;28;20196;-86
2023/10/16 14:59:32;;;;;;;4.95;1.65;;;9.70;99.90;;;;;;5057400;28;20170;-87
2023/10/16 15:02:00;;;;;;;2.58;1.27;;;9.70;99.90;;;;;;5057397;28;20602;-87
2023/10/16 15:04:26;;;;;;;2.83;1.35;;;9.70;99.90;;;;;;5055904;28;20180;-87
2023/10/16 15:06:52;;;;;;;2.10;1.10;;;9.70;99.90;;;;;;5054890;28;20224;-86
2023/10/16 15:09:18;;;;;;;3.78;1.40;;;9.80;99.90;;;;;;5055258;28;20174;-87
2023/10/16 15:11:45;;;;;;;2.97;1.35;;;9.70;99.90;;;;;;5067932;28;20185;-86
2023/10/16 15:14:12;;;;;;;3.78;1.27;;;9.60;99.90;;;;;;5065806;28;20176;-86
2023/10/16 15:16:38;;;;;;;2.13;1.10;;;9.60;99.90;;;;;;5064039;28;20185;-86
2023/10/16 15:19:07;;;;;;;2.05;0.95;;;9.50;99.90;;;;;;5059135;28;20221;-86
2023/10/16 15:21:40;;;;;;;1.55;0.90;;;9.50;99.90;;;;;;5054060;28;20245;-86